createdAt,value
2019-05-14T00:00:01.900Z,6.6
2019-05-14T00:05:01.922Z,6.6
2019-05-14T00:10:02.259Z,6.5
2019-05-14T00:15:01.993Z,6.5
2019-05-14T00:20:06.980Z,6.5
2019-05-14T00:25:01.606Z,6.5
2019-05-14T00:30:02.405Z,6.5
2019-05-14T00:35:02.090Z,6.5
2019-05-14T00:40:01.649Z,6.3
2019-05-14T00:45:01.977Z,6.2
2019-05-14T00:50:02.343Z,6.2
2019-05-14T00:55:01.256Z,6.1
2019-05-14T01:00:02.097Z,6
2019-05-14T01:05:01.990Z,5.9
2019-05-14T01:10:01.473Z,5.8
2019-05-14T01:15:07.654Z,5.7
2019-05-14T01:20:03.052Z,5.7
2019-05-14T01:25:01.915Z,5.6
2019-05-14T01:30:02.239Z,5.6
2019-05-14T01:35:02.294Z,5.5
2019-05-14T01:40:01.559Z,5.5
2019-05-14T01:45:02.548Z,5.4
2019-05-14T01:50:02.225Z,5.4
2019-05-14T01:55:02.208Z,5.3
2019-05-14T02:00:02.217Z,5.2
2019-05-14T02:05:02.072Z,5
2019-05-14T02:10:01.873Z,5
2019-05-14T02:15:02.054Z,5.1
2019-05-14T02:20:02.267Z,5.1
2019-05-14T02:25:02.338Z,5.1
2019-05-14T02:30:02.279Z,5.1
2019-05-14T02:35:01.824Z,5.1
2019-05-14T02:40:02.218Z,5
2019-05-14T02:45:01.257Z,5
2019-05-14T02:50:01.404Z,5
2019-05-14T02:55:01.545Z,5
2019-05-14T03:00:01.869Z,4.9
2019-05-14T03:05:02.023Z,4.9
2019-05-14T03:10:02.262Z,4.7
2019-05-14T03:15:01.512Z,4.7
2019-05-14T03:20:01.422Z,4.8
2019-05-14T03:25:01.283Z,4.6
2019-05-14T03:30:01.527Z,4.5
2019-05-14T03:35:04.163Z,4.5
2019-05-14T03:40:02.095Z,4.5
2019-05-14T03:45:01.382Z,4.6
2019-05-14T03:50:01.788Z,4.6
2019-05-14T03:55:04.641Z,4.6
2019-05-14T04:00:02.124Z,4.6
2019-05-14T04:05:01.378Z,4.7
2019-05-14T04:10:01.463Z,4.8
2019-05-14T04:15:01.538Z,4.8
2019-05-14T04:20:02.025Z,4.9
2019-05-14T04:25:01.366Z,5
2019-05-14T04:30:01.996Z,5.2
2019-05-14T04:35:01.865Z,5.9
2019-05-14T04:40:01.955Z,7.1
2019-05-14T04:45:05.394Z,8.9
2019-05-14T04:50:02.063Z,9.8
2019-05-14T04:55:02.111Z,10.1
2019-05-14T05:00:01.708Z,10
2019-05-14T05:05:02.128Z,9.7
2019-05-14T05:10:01.789Z,9.6
2019-05-14T05:15:02.712Z,9.2
2019-05-14T05:20:01.335Z,9.1
2019-05-14T05:25:01.413Z,9.1
2019-05-14T05:30:01.402Z,9.2
2019-05-14T05:35:02.115Z,9.2
2019-05-14T05:40:01.224Z,9.4
2019-05-14T05:45:01.504Z,9.7
2019-05-14T05:50:01.559Z,9.9
2019-05-14T05:55:01.946Z,10.1
2019-05-14T06:00:01.602Z,10.4
2019-05-14T06:05:01.909Z,10.8
2019-05-14T06:10:02.435Z,11.1
2019-05-14T06:15:01.290Z,11.6
2019-05-14T06:20:01.770Z,12
2019-05-14T06:25:02.089Z,12.3
2019-05-14T06:30:02.033Z,12.6
2019-05-14T06:35:02.162Z,12.5
2019-05-14T06:40:01.501Z,12.9
2019-05-14T06:45:01.566Z,13.2
2019-05-14T06:50:01.649Z,13.5
2019-05-14T06:55:01.741Z,13.9
2019-05-14T07:00:01.507Z,14.2
2019-05-14T07:05:01.987Z,14.3
2019-05-14T07:10:02.002Z,14.7
2019-05-14T07:15:02.267Z,15
2019-05-14T07:20:01.355Z,15.2
2019-05-14T07:25:01.716Z,15.3
2019-05-14T07:30:01.338Z,15.7
2019-05-14T07:35:02.076Z,15.6
2019-05-14T07:40:02.050Z,15.6
2019-05-14T07:45:01.468Z,15.7
2019-05-14T07:50:01.503Z,15.8
2019-05-14T07:55:01.379Z,15.9
2019-05-14T08:00:02.018Z,16.1
2019-05-14T08:05:02.461Z,16.1
2019-05-14T08:10:01.400Z,16.1
2019-05-14T08:15:15.094Z,15.7
2019-05-14T08:20:01.249Z,15.8
2019-05-14T08:25:01.930Z,15.7
2019-05-14T08:30:01.315Z,15.7
2019-05-14T08:35:01.348Z,15.5
2019-05-14T08:40:01.726Z,15.8
2019-05-14T08:45:04.674Z,15.9
2019-05-14T08:50:01.689Z,15.7
2019-05-14T08:55:09.918Z,15.6
2019-05-14T09:00:01.908Z,15.9
2019-05-14T09:05:04.257Z,16
2019-05-14T09:10:01.844Z,16.2
2019-05-14T09:15:01.574Z,16
2019-05-14T09:20:06.841Z,16
2019-05-14T09:25:01.470Z,15.8
2019-05-14T09:30:01.935Z,16.2
2019-05-14T09:35:01.179Z,16
2019-05-14T09:40:01.819Z,16.4
2019-05-14T09:45:01.709Z,16.5
2019-05-14T09:50:14.103Z,16.7
2019-05-14T09:55:02.271Z,16.8
2019-05-14T10:00:01.596Z,16.7
2019-05-14T10:05:01.839Z,16.4
2019-05-14T10:10:01.658Z,16.6
2019-05-14T10:15:02.299Z,16.7
2019-05-14T10:20:01.284Z,16.6
2019-05-14T10:25:01.672Z,16.3
2019-05-14T10:30:01.839Z,16.2
2019-05-14T10:35:02.111Z,16.6
2019-05-14T10:40:02.055Z,16.9
2019-05-14T10:45:02.117Z,17.1
2019-05-14T10:50:02.394Z,17
2019-05-14T10:55:01.224Z,16.7
2019-05-14T11:00:01.325Z,17.2
2019-05-14T11:05:01.659Z,17.1
2019-05-14T11:10:02.140Z,17.3
2019-05-14T11:15:02.028Z,17.3
2019-05-14T11:20:01.484Z,17
2019-05-14T11:25:01.690Z,17.4
2019-05-14T11:30:01.837Z,17.7
2019-05-14T11:35:01.260Z,17.4
2019-05-14T11:40:01.246Z,17.6
2019-05-14T11:45:01.698Z,17.9
2019-05-14T11:50:01.993Z,17.6
2019-05-14T11:55:01.649Z,17.4
2019-05-14T12:00:02.110Z,17.4
2019-05-14T12:05:01.404Z,17
2019-05-14T12:10:01.732Z,16.8
2019-05-14T12:15:01.584Z,16.9
2019-05-14T12:20:01.835Z,17.3
2019-05-14T12:25:01.727Z,17.9
2019-05-14T12:30:02.109Z,18
2019-05-14T12:35:01.443Z,17.8
2019-05-14T12:40:02.272Z,17.5
2019-05-14T12:45:01.228Z,17.4
2019-05-14T12:50:01.680Z,17
2019-05-14T12:55:01.434Z,17.3
2019-05-14T13:00:01.979Z,17.1
2019-05-14T13:05:01.637Z,17.4
2019-05-14T13:10:01.512Z,17.4
2019-05-14T13:15:02.396Z,17.5
2019-05-14T13:20:01.409Z,17.2
2019-05-14T13:25:01.668Z,16.9
2019-05-14T13:30:01.470Z,16.7
2019-05-14T13:35:02.464Z,17.1
2019-05-14T13:40:03.103Z,17.1
2019-05-14T13:45:02.047Z,16.5
2019-05-14T13:50:01.262Z,15.8
2019-05-14T13:55:01.399Z,15.8
2019-05-14T14:00:01.196Z,15.7
2019-05-14T14:05:01.508Z,15.7
2019-05-14T14:10:01.712Z,16.1
2019-05-14T14:15:01.398Z,16.2
2019-05-14T14:20:01.994Z,16.4
2019-05-14T14:25:01.403Z,17
2019-05-14T14:30:01.752Z,16.8
2019-05-14T14:35:01.773Z,16.3
2019-05-14T14:40:01.398Z,15.9
2019-05-14T14:45:01.358Z,15.5
2019-05-14T14:50:01.831Z,15.5
2019-05-14T14:55:01.883Z,15.7
2019-05-14T15:00:01.596Z,15.7
2019-05-14T15:05:01.204Z,15.6
2019-05-14T15:10:01.753Z,15.4
2019-05-14T15:15:01.587Z,15.2
2019-05-14T15:20:02.181Z,15.1
2019-05-14T15:25:02.383Z,14.5
2019-05-14T15:30:01.534Z,14.4
2019-05-14T15:35:01.522Z,14.6
2019-05-14T15:40:04.123Z,14.6
2019-05-14T15:45:01.446Z,14.5
2019-05-14T15:50:01.904Z,14.5
2019-05-14T15:55:01.903Z,14.2
2019-05-14T16:00:01.426Z,14.1
2019-05-14T16:05:01.902Z,14.3
2019-05-14T16:10:01.487Z,14.9
2019-05-14T16:15:01.371Z,14.8
2019-05-14T16:20:01.865Z,14.7
2019-05-14T16:25:01.996Z,14.4
2019-05-14T16:30:01.372Z,13.9
2019-05-14T16:35:01.341Z,13.8
2019-05-14T16:40:02.146Z,13.6
2019-05-14T16:45:01.245Z,13.7
2019-05-14T16:50:01.582Z,13.5
2019-05-14T16:55:15.326Z,13.5
2019-05-14T17:00:02.148Z,13.6
2019-05-14T17:05:01.699Z,13.5
2019-05-14T17:10:02.254Z,13.4
2019-05-14T17:15:02.114Z,13.3
2019-05-14T17:20:01.274Z,13.3
2019-05-14T17:25:02.379Z,13.2
2019-05-14T17:30:02.111Z,13.2
2019-05-14T17:35:01.980Z,13.2
2019-05-14T17:40:02.184Z,13.3
2019-05-14T17:45:02.069Z,13.2
2019-05-14T17:50:02.388Z,13.2
2019-05-14T17:55:01.812Z,13.1
2019-05-14T18:00:01.846Z,13.1
2019-05-14T18:05:02.081Z,13
2019-05-14T18:10:01.649Z,12.9
2019-05-14T18:15:02.019Z,12.7
2019-05-14T18:20:01.561Z,12.5
2019-05-14T18:25:01.214Z,12.5
2019-05-14T18:30:01.875Z,12.4
2019-05-14T18:35:01.775Z,12.3
2019-05-14T18:40:01.805Z,12.2
2019-05-14T18:45:02.006Z,12.1
2019-05-14T18:50:01.964Z,11.8
2019-05-14T18:55:02.131Z,11.7
2019-05-14T19:00:02.440Z,11.6
2019-05-14T19:05:01.434Z,11.4
2019-05-14T19:10:01.703Z,11.3
2019-05-14T19:15:01.284Z,11.2
2019-05-14T19:20:02.286Z,11
2019-05-14T19:25:01.871Z,10.8
2019-05-14T19:30:03.192Z,10.7
2019-05-14T19:35:01.430Z,10.5
2019-05-14T19:40:02.133Z,10.3
2019-05-14T19:45:01.704Z,10.2
2019-05-14T19:50:01.449Z,10.2
2019-05-14T19:55:01.459Z,9.8
2019-05-14T20:00:02.475Z,9.6
2019-05-14T20:05:05.342Z,9.4
2019-05-14T20:10:01.157Z,9.3
2019-05-14T20:15:01.874Z,9.2
2019-05-14T20:20:02.107Z,9.1
2019-05-14T20:25:01.528Z,8.9
2019-05-14T20:30:01.551Z,8.7
2019-05-14T20:35:02.388Z,8.6
2019-05-14T20:40:02.207Z,8.5
2019-05-14T20:45:01.360Z,8.5
2019-05-14T20:50:02.247Z,8.3
2019-05-14T20:55:01.647Z,8.1
2019-05-14T21:00:01.375Z,8.1
2019-05-14T21:05:03.973Z,8
2019-05-14T21:10:01.537Z,7.6
2019-05-14T21:15:01.645Z,7.6
2019-05-14T21:20:01.715Z,7.6
2019-05-14T21:25:01.769Z,7.5
2019-05-14T21:30:01.966Z,7.3
2019-05-14T21:35:01.553Z,7.2
2019-05-14T21:40:02.464Z,7.1
2019-05-14T21:45:01.549Z,6.9
2019-05-14T21:50:01.465Z,6.7
2019-05-14T21:55:02.034Z,6.7
2019-05-14T22:00:01.865Z,6.7
2019-05-14T22:05:01.786Z,6.7
2019-05-14T22:10:02.254Z,6.5
2019-05-14T22:15:01.880Z,6.4
2019-05-14T22:20:01.679Z,6.3
2019-05-14T22:25:01.630Z,6.1
2019-05-14T22:30:01.549Z,5.7
2019-05-14T22:35:01.322Z,5.7
2019-05-14T22:40:01.641Z,5.7
2019-05-14T22:45:01.708Z,5.6
2019-05-14T22:50:02.054Z,5.5
2019-05-14T22:55:01.288Z,5.5
2019-05-14T23:00:01.736Z,5.5
2019-05-14T23:05:01.718Z,5.4
2019-05-14T23:10:01.677Z,5.4
2019-05-14T23:15:01.436Z,5.3
2019-05-14T23:20:02.019Z,5.3
2019-05-14T23:25:01.356Z,5.3
2019-05-14T23:30:01.826Z,5.2
2019-05-14T23:35:02.073Z,5.1
2019-05-14T23:40:01.379Z,5.1
2019-05-14T23:45:01.886Z,5
2019-05-14T23:50:02.093Z,4.9
2019-05-14T23:55:01.410Z,4.8
